Date,TemperatureHighF,TemperatureAvgF,TemperatureLowF,DewpointHighF,DewpointAvgF,DewpointLowF,HumidityHigh,HumidityAvg,HumidityLow,PressureMaxIn,PressureMinIn,WindSpeedMaxMPH,WindSpeedAvgMPH,GustSpeedMaxMPH,PrecipitationSumIn
2013-1-1,81.0,78.3,75.0,-99.9,-99.9,-99.9,0,0,100,30.09,30.00,17,11,20,0.00
2013-1-2,81.0,78.8,75.0,-99.9,-99.9,-99.9,0,0,100,30.07,29.97,18,11,23,0.00
2013-1-3,81.0,76.8,73.0,-99.9,-99.9,-99.9,0,0,100,30.12,30.01,20,8,26,0.00
2013-1-4,81.0,78.8,74.0,-99.9,-99.9,-99.9,0,0,100,30.17,30.07,21,12,26,0.00
2013-1-5,81.0,80.1,79.0,-99.9,-99.9,-99.9,0,0,100,30.20,30.09,23,17,28,0.00
2013-1-6,81.0,80.0,78.0,-99.9,-99.9,-99.9,0,0,100,30.14,30.05,23,18,28,0.00
2013-1-7,81.0,79.0,75.0,-99.9,-99.9,-99.9,0,0,100,30.12,30.02,25,17,32,0.00
2013-1-8,81.0,78.8,76.0,-99.9,-99.9,-99.9,0,0,100,30.16,30.05,31,18,37,0.00
2013-1-9,81.0,79.5,75.0,-99.9,-99.9,-99.9,0,0,100,30.19,30.08,28,18,36,0.00
2013-1-10,80.0,78.6,75.0,-99.9,-99.9,-99.9,0,0,100,30.17,30.08,26,17,31,0.00
2013-1-11,80.0,77.7,75.0,-99.9,-99.9,-99.9,0,0,100,30.11,29.99,18,14,24,0.00
2013-1-12,81.0,76.0,72.0,-99.9,-99.9,-99.9,0,0,100,30.02,29.94,23,11,28,0.00
2013-1-13,81.0,77.7,75.0,-99.9,-99.9,-99.9,0,0,100,30.05,29.97,16,10,20,0.00
2013-1-14,80.0,77.7,76.0,-99.9,-99.9,-99.9,0,0,100,30.08,29.99,15,9,21,0.00
2013-1-15,79.0,76.2,72.0,-99.9,-99.9,-99.9,0,0,100,30.05,29.97,19,12,25,0.00
2013-1-16,79.0,76.3,72.0,-99.9,-99.9,-99.9,0,0,100,30.07,29.97,21,12,26,0.00
2013-1-17,80.0,77.0,73.0,-99.9,-99.9,-99.9,0,0,100,30.08,29.98,21,12,28,0.00
2013-1-18,80.0,76.8,73.0,-99.9,-99.9,-99.9,0,0,100,30.11,30.01,16,9,19,0.00
2013-1-19,80.0,77.9,74.0,-99.9,-99.9,-99.9,0,0,100,30.11,30.00,20,12,24,0.00
2013-1-20,80.0,77.3,74.0,-99.9,-99.9,-99.9,0,0,100,30.09,29.98,19,9,22,0.00
2013-1-21,80.0,77.1,72.0,-99.9,-99.9,-99.9,0,0,100,30.05,29.96,16,8,21,0.00
2013-1-22,82.0,78.2,75.0,-99.9,-99.9,-99.9,0,0,100,30.09,29.98,20,8,26,0.00
2013-1-23,81.0,78.0,74.0,-99.9,-99.9,-99.9,0,0,100,30.13,30.02,21,2,25,0.00
2013-1-24,80.0,78.1,75.0,-99.9,-99.9,-99.9,0,0,100,30.12,30.00,18,10,22,0.00
2013-1-25,81.0,77.3,73.0,-99.9,-99.9,-99.9,0,0,100,30.11,30.02,21,9,27,0.00
2013-1-26,80.0,77.6,74.0,-99.9,-99.9,-99.9,0,0,100,30.11,30.03,22,12,27,0.00
2013-1-27,80.0,78.2,74.0,-99.9,-99.9,-99.9,0,0,100,30.15,30.05,17,10,22,0.00
2013-1-28,80.0,78.8,76.0,-99.9,-99.9,-99.9,0,0,100,30.19,30.08,23,13,27,0.00
2013-1-29,79.0,77.1,74.0,-99.9,-99.9,-99.9,0,0,100,30.14,30.04,19,12,28,0.00
2013-1-30,80.0,77.1,74.0,-99.9,-99.9,-99.9,0,0,100,30.11,30.03,23,13,28,0.00
2013-1-31,79.0,77.5,74.0,-99.9,-99.9,-99.9,0,0,100,30.10,30.01,21,13,25,0.00